Time,TemperatureF,DewpointF,PressureIn,WindDirection,WindDirectionDegrees,WindSpeedMPH,WindSpeedGustMPH,Humidity,HourlyPrecipIn,Conditions,Clouds,dailyrainin,SoftwareType,DateUTC
2013-04-28 07:25:00,52.2,51.4,30.00,North,11,2.0,2.0,97,0.00,,,0.00,Wunderground v.1.15,2013-04-28 12:25:00,
2013-04-28 07:30:00,52.3,51.5,30.00,North,349,1.0,2.0,97,0.00,,,0.00,Wunderground v.1.15,2013-04-28 12:30:00,
2013-04-28 07:35:00,52.3,51.8,30.01,NW,325,0.0,0.0,98,0.00,,,0.00,Wunderground v.1.15,2013-04-28 12:35:00,
2013-04-28 07:40:00,52.3,51.5,30.01,WNW,295,0.0,0.0,97,0.00,,,0.00,Wunderground v.1.15,2013-04-28 12:40:00,
2013-04-28 07:45:00,52.2,51.4,30.01,NNW,330,1.0,1.0,97,0.00,,,0.00,Wunderground v.1.15,2013-04-28 12:45:00,
2013-04-28 07:50:00,52.2,51.4,30.01,North,349,1.0,1.0,97,0.00,,,0.00,Wunderground v.1.15,2013-04-28 12:50:00,
2013-04-28 07:55:00,52.2,51.4,30.01,North,355,1.0,2.0,97,0.00,,,0.00,Wunderground v.1.15,2013-04-28 12:55:00,
2013-04-28 08:00:00,52.2,51.4,30.01,North,352,1.0,1.0,97,0.00,,,0.00,Wunderground v.1.15,2013-04-28 13:00:00,
2013-04-28 08:10:00,52.2,51.7,30.01,NNW,340,2.0,2.0,98,0.00,,,0.00,Wunderground v.1.15,2013-04-28 13:10:00,
2013-04-28 08:15:00,52.3,51.8,30.01,NNW,346,2.0,2.0,98,0.00,,,0.00,Wunderground v.1.15,2013-04-28 13:15:00,
2013-04-28 08:25:00,52.4,51.9,30.01,NW,315,1.0,2.0,98,0.00,,,0.00,Wunderground v.1.15,2013-04-28 13:25:00,
2013-04-28 08:35:00,52.5,52.0,30.01,NW,324,1.0,2.0,98,0.00,,,0.00,Wunderground v.1.15,2013-04-28 13:35:00,
2013-04-28 08:45:00,52.5,52.0,30.01,NNW,327,2.0,2.0,98,0.00,,,0.00,Wunderground v.1.15,2013-04-28 13:45:00,
2013-04-28 08:50:00,52.6,52.1,30.01,NNW,328,2.0,4.0,98,0.00,,,0.00,Wunderground v.1.15,2013-04-28 13:50:00,
2013-04-28 09:00:00,52.7,52.2,30.01,WNW,293,1.0,1.0,98,0.00,,,0.00,Wunderground v.1.15,2013-04-28 14:00:00,
2013-04-28 09:10:00,53.0,52.2,30.01,NW,314,1.0,2.0,97,0.00,,,0.00,Wunderground v.1.15,2013-04-28 14:10:00,
2013-04-28 09:20:00,53.2,52.1,30.01,WNW,284,3.0,3.0,96,0.00,,,0.00,Wunderground v.1.15,2013-04-28 14:20:00,
2013-04-28 09:25:00,53.3,51.9,30.02,WNW,302,2.0,3.0,95,0.00,,,0.00,Wunderground v.1.15,2013-04-28 14:25:00,
2013-04-28 09:30:00,53.4,52.0,30.02,NW,322,2.0,2.0,95,0.00,,,0.00,Wunderground v.1.15,2013-04-28 14:30:00,
2013-04-28 09:40:00,53.6,52.2,30.02,NW,318,3.0,3.0,95,0.00,,,0.00,Wunderground v.1.15,2013-04-28 14:40:00,
2013-04-28 09:45:00,53.7,52.0,30.02,NW,304,3.0,3.0,94,0.00,,,0.00,Wunderground v.1.15,2013-04-28 14:45:00,
2013-04-28 09:55:00,53.9,52.2,30.01,NNW,335,2.0,4.0,94,0.00,,,0.00,Wunderground v.1.15,2013-04-28 14:55:00,
2013-04-28 10:00:00,54.0,52.3,30.01,WNW,300,2.0,2.0,94,0.00,,,0.00,Wunderground v.1.15,2013-04-28 15:00:00,
2013-04-28 10:10:00,54.2,51.9,30.01,NW,314,1.0,2.0,92,0.00,,,0.00,Wunderground v.1.15,2013-04-28 15:10:00,
2013-04-28 10:15:00,54.4,52.1,30.01,NW,325,1.0,2.0,92,0.00,,,0.00,Wunderground v.1.15,2013-04-28 15:15:00,
2013-04-28 10:20:00,54.7,52.4,30.01,NW,322,1.0,2.0,92,0.00,,,0.00,Wunderground v.1.15,2013-04-28 15:20:00,
2013-04-28 10:30:00,55.3,52.4,30.00,North,356,2.0,4.0,90,0.00,,,0.00,Wunderground v.1.15,2013-04-28 15:30:00,
2013-04-28 10:40:00,56.1,52.6,30.00,NE,44,3.0,3.0,88,0.00,,,0.00,Wunderground v.1.15,2013-04-28 15:40:00,
2013-04-28 10:50:00,57.5,53.0,30.00,NNE,27,2.0,2.0,85,0.00,,,0.00,Wunderground v.1.15,2013-04-28 15:50:00,
2013-04-28 10:55:00,57.8,53.0,30.00,North,355,3.0,4.0,84,0.00,,,0.00,Wunderground v.1.15,2013-04-28 15:55:00,
2013-04-28 11:00:00,58.0,53.2,30.00,North,5,4.0,6.0,84,0.00,,,0.00,Wunderground v.1.15,2013-04-28 16:00:00,
2013-04-28 11:10:00,58.2,52.7,30.00,NE,46,5.0,5.0,82,0.00,,,0.00,Wunderground v.1.15,2013-04-28 16:10:00,
2013-04-28 11:15:00,58.2,52.4,30.00,NNE,18,6.0,6.0,81,0.00,,,0.00,Wunderground v.1.15,2013-04-28 16:15:00,
2013-04-28 11:25:00,58.2,52.4,30.00,North,360,6.0,6.0,81,0.00,,,0.00,Wunderground v.1.15,2013-04-28 16:25:00,
2013-04-28 11:35:00,58.7,52.2,30.00,NE,36,5.0,6.0,79,0.00,,,0.00,Wunderground v.1.15,2013-04-28 16:35:00,
2013-04-28 11:40:00,59.3,53.1,30.00,NNE,12,4.0,5.0,80,0.00,,,0.00,Wunderground v.1.15,2013-04-28 16:40:00,
2013-04-28 11:50:00,60.4,52.8,30.00,NE,50,4.0,5.0,76,0.00,,,0.00,Wunderground v.1.15,2013-04-28 16:50:00,
2013-04-28 11:55:00,60.3,52.3,30.00,North,356,4.0,5.0,75,0.00,,,0.00,Wunderground v.1.15,2013-04-28 16:55:00,
2013-04-28 12:00:00,60.2,52.6,30.00,North,3,6.0,6.0,76,0.00,,,0.00,Wunderground v.1.15,2013-04-28 17:00:00,
2013-04-28 12:10:00,60.8,53.2,29.99,West,269,4.0,4.0,76,0.00,,,0.00,Wunderground v.1.15,2013-04-28 17:10:00,
2013-04-28 12:20:00,61.4,52.7,29.99,NNW,344,2.0,2.0,73,0.00,,,0.00,Wunderground v.1.15,2013-04-28 17:20:00,
2013-04-28 12:30:00,61.6,52.5,29.99,NE,56,3.0,5.0,72,0.00,,,0.00,Wunderground v.1.15,2013-04-28 17:30:00,
2013-04-28 12:40:00,62.6,53.4,29.98,NE,45,2.0,6.0,72,0.00,,,0.00,Wunderground v.1.15,2013-04-28 17:40:00,
2013-04-28 12:45:00,62.8,52.5,29.98,WNW,300,2.0,6.0,69,0.00,,,0.00,Wunderground v.1.15,2013-04-28 17:45:00,
2013-04-28 12:55:00,63.0,52.3,29.98,North,359,5.0,7.0,68,0.00,,,0.00,Wunderground v.1.15,2013-04-28 17:55:00,
2013-04-28 13:00:00,63.7,53.3,29.98,NNW,342,4.0,4.0,69,0.00,,,0.00,Wunderground v.1.15,2013-04-28 18:00:00,
2013-04-28 13:10:00,64.6,53.0,29.98,North,355,3.0,5.0,66,0.00,,,0.00,Wunderground v.1.15,2013-04-28 18:10:00,
2013-04-28 13:20:00,64.6,53.0,29.98,WNW,300,3.0,3.0,66,0.00,,,0.00,Wunderground v.1.15,2013-04-28 18:20:00,
2013-04-28 13:30:00,64.1,52.5,29.98,WNW,294,2.0,2.0,66,0.00,,,0.00,Wunderground v.1.15,2013-04-28 18:30:00,
2013-04-28 13:35:00,64.0,52.0,29.98,WNW,297,2.0,2.0,65,0.00,,,0.00,Wunderground v.1.15,2013-04-28 18:35:00,
2013-04-28 13:45:00,64.0,52.0,29.98,WSW,249,1.0,2.0,65,0.00,,,0.00,Wunderground v.1.15,2013-04-28 18:45:00,
2013-04-28 13:55:00,64.1,52.1,29.98,NE,55,1.0,2.0,65,0.00,,,0.00,Wunderground v.1.15,2013-04-28 18:55:00,
2013-04-28 14:00:00,64.3,52.3,29.98,NNW,327,1.0,1.0,65,0.00,,,0.00,Wunderground v.1.15,2013-04-28 19:00:00,
2013-04-28 14:10:00,64.4,52.0,29.98,NW,313,2.0,2.0,64,0.00,,,0.00,Wunderground v.1.15,2013-04-28 19:10:00,
2013-04-28 14:20:00,64.2,52.2,29.98,WSW,242,2.0,2.0,65,0.00,,,0.00,Wunderground v.1.15,2013-04-28 19:20:00,
2013-04-28 14:30:00,64.5,52.0,29.98,SW,235,2.0,5.0,64,0.00,,,0.00,Wunderground v.1.15,2013-04-28 19:30:00,
2013-04-28 14:40:00,64.9,52.4,29.97,WSW,238,2.0,2.0,64,0.00,,,0.00,Wunderground v.1.15,2013-04-28 19:40:00,
2013-04-28 14:50:00,65.2,53.1,29.97,SW,215,3.0,5.0,65,0.00,,,0.00,Wunderground v.1.15,2013-04-28 19:50:00,
2013-04-28 14:55:00,65.3,52.8,29.97,WSW,242,3.0,5.0,64,0.00,,,0.00,Wunderground v.1.15,2013-04-28 19:55:00,
2013-04-28 15:00:00,65.1,52.6,29.96,West,260,2.0,2.0,64,0.00,,,0.00,Wunderground v.1.15,2013-04-28 20:00:00,
2013-04-28 15:10:00,65.5,53.4,29.96,WNW,288,2.0,2.0,65,0.00,,,0.00,Wunderground v.1.15,2013-04-28 20:10:00,
2013-04-28 15:15:00,66.3,52.4,29.96,SW,236,2.0,2.0,61,0.00,,,0.00,Wunderground v.1.15,2013-04-28 20:15:00,
2013-04-28 15:25:00,67.0,53.5,29.95,SSW,212,3.0,4.0,62,0.00,,,0.00,Wunderground v.1.15,2013-04-28 20:25:00,
2013-04-28 15:35:00,67.1,52.7,29.95,SSW,210,2.0,3.0,60,0.00,,,0.00,Wunderground v.1.15,2013-04-28 20:35:00,
2013-04-28 15:40:00,67.6,52.8,29.94,WNW,300,2.0,2.0,59,0.00,,,0.00,Wunderground v.1.15,2013-04-28 20:40:00,
2013-04-28 15:50:00,67.1,52.7,29.94,SW,229,2.0,5.0,60,0.00,,,0.00,Wunderground v.1.15,2013-04-28 20:50:00,
2013-04-28 15:55:00,67.8,52.9,29.93,SSW,210,3.0,5.0,59,0.00,,,0.00,Wunderground v.1.15,2013-04-28 20:55:00,
2013-04-28 16:00:00,68.0,52.2,29.93,SSW,200,3.0,4.0,57,0.00,,,0.00,Wunderground v.1.15,2013-04-28 21:00:00,
2013-04-28 16:10:00,68.1,53.2,29.93,SSW,203,3.0,3.0,59,0.00,,,0.00,Wunderground v.1.15,2013-04-28 21:10:00,
2013-04-28 16:15:00,68.2,53.3,29.93,West,266,3.0,3.0,59,0.00,,,0.00,Wunderground v.1.15,2013-04-28 21:15:00,
2013-04-28 16:20:00,68.4,52.6,29.93,West,267,2.0,2.0,57,0.00,,,0.00,Wunderground v.1.15,2013-04-28 21:20:00,
2013-04-28 16:30:00,68.4,52.6,29.93,West,278,3.0,4.0,57,0.00,,,0.00,Wunderground v.1.15,2013-04-28 21:30:00,
2013-04-28 16:35:00,68.7,52.8,29.93,South,183,3.0,4.0,57,0.00,,,0.00,Wunderground v.1.15,2013-04-28 21:35:00,
2013-04-28 16:45:00,69.1,52.7,29.93,WSW,240,2.0,5.0,56,0.00,,,0.00,Wunderground v.1.15,2013-04-28 21:45:00,
2013-04-28 16:55:00,68.3,52.5,29.93,WSW,240,5.0,6.0,57,0.00,,,0.00,Wunderground v.1.15,2013-04-28 21:55:00,
2013-04-28 17:00:00,68.1,53.2,29.93,SSW,212,4.0,4.0,59,0.00,,,0.00,Wunderground v.1.15,2013-04-28 22:00:00,
2013-04-28 17:10:00,68.9,53.0,29.93,WSW,242,3.0,6.0,57,0.00,,,0.00,Wunderground v.1.15,2013-04-28 22:10:00,
2013-04-28 17:20:00,69.1,52.7,29.93,WSW,240,4.0,4.0,56,0.00,,,0.00,Wunderground v.1.15,2013-04-28 22:20:00,
2013-04-28 17:30:00,69.3,52.4,29.93,WSW,256,3.0,3.0,55,0.00,,,0.00,Wunderground v.1.15,2013-04-28 22:30:00,
2013-04-28 17:35:00,69.1,52.7,29.93,West,262,4.0,5.0,56,0.00,,,0.00,Wunderground v.1.15,2013-04-28 22:35:00,
2013-04-28 17:40:00,68.5,52.2,29.93,WSW,245,4.0,4.0,56,0.00,,,0.00,Wunderground v.1.15,2013-04-28 22:40:00,
2013-04-28 17:50:00,68.6,53.2,29.93,SW,232,3.0,4.0,58,0.00,,,0.00,Wunderground v.1.15,2013-04-28 22:50:00,
2013-04-28 18:00:00,68.5,52.7,29.93,West,264,4.0,4.0,57,0.00,,,0.00,Wunderground v.1.15,2013-04-28 23:00:00,
2013-04-28 18:10:00,68.5,53.1,29.93,South,186,3.0,3.0,58,0.00,,,0.00,Wunderground v.1.15,2013-04-28 23:10:00,
2013-04-28 18:15:00,68.4,53.0,29.93,SW,221,4.0,4.0,58,0.00,,,0.00,Wunderground v.1.15,2013-04-28 23:15:00,
2013-04-28 18:25:00,68.5,53.1,29.92,WSW,247,3.0,3.0,58,0.00,,,0.00,Wunderground v.1.15,2013-04-28 23:25:00,
2013-04-28 18:35:00,68.0,52.2,29.92,WSW,243,3.0,5.0,57,0.00,,,0.00,Wunderground v.1.15,2013-04-28 23:35:00,
2013-04-28 18:45:00,67.6,53.2,29.92,WSW,248,3.0,3.0,60,0.00,,,0.00,Wunderground v.1.15,2013-04-28 23:45:00,
2013-04-28 18:55:00,67.2,53.7,29.92,SW,218,2.0,3.0,62,0.00,,,0.00,Wunderground v.1.15,2013-04-28 23:55:00,
2013-04-28 19:00:00,67.0,53.5,29.92,SW,226,2.0,2.0,62,0.00,,,0.00,Wunderground v.1.15,2013-04-29 00:00:00,
2013-04-28 19:10:00,66.5,53.5,29.92,SSW,212,2.0,2.0,63,0.00,,,0.00,Wunderground v.1.15,2013-04-29 00:10:00,
2013-04-28 19:20:00,65.9,53.4,29.92,SW,217,2.0,2.0,64,0.00,,,0.00,Wunderground v.1.15,2013-04-29 00:20:00,
2013-04-28 19:30:00,65.2,53.6,29.92,SW,216,1.0,1.0,66,0.00,,,0.00,Wunderground v.1.15,2013-04-29 00:30:00,
2013-04-28 19:35:00,64.9,53.7,29.92,SSW,212,1.0,2.0,67,0.00,,,0.00,Wunderground v.1.15,2013-04-29 00:35:00,
2013-04-28 19:45:00,64.2,53.0,29.92,SW,218,2.0,2.0,67,0.00,,,0.00,Wunderground v.1.15,2013-04-29 00:45:00,
2013-04-28 19:55:00,63.6,53.2,29.92,SSW,207,1.0,1.0,69,0.00,,,0.00,Wunderground v.1.15,2013-04-29 00:55:00,
2013-04-28 20:00:00,63.3,53.0,29.92,SSW,201,1.0,2.0,69,0.00,,,0.00,Wunderground v.1.15,2013-04-29 01:00:00,
2013-04-28 20:10:00,62.8,52.9,29.92,SW,215,1.0,1.0,70,0.00,,,0.00,Wunderground v.1.15,2013-04-29 01:10:00,
2013-04-28 20:15:00,62.5,53.0,29.92,South,188,1.0,2.0,71,0.00,,,0.00,Wunderground v.1.15,2013-04-29 01:15:00,
2013-04-28 20:20:00,62.1,53.0,29.93,South,174,1.0,2.0,72,0.00,,,0.00,Wunderground v.1.15,2013-04-29 01:20:00,
2013-04-28 20:25:00,61.7,53.0,29.93,SSE,167,2.0,2.0,73,0.00,,,0.00,Wunderground v.1.15,2013-04-29 01:25:00,
2013-04-28 20:35:00,61.3,52.9,29.93,SSW,195,3.0,5.0,74,0.00,,,0.00,Wunderground v.1.15,2013-04-29 01:35:00,
2013-04-28 20:45:00,60.8,52.8,29.93,SSW,197,4.0,4.0,75,0.00,,,0.00,Wunderground v.1.15,2013-04-29 01:45:00,
2013-04-28 20:55:00,60.2,53.0,29.94,South,188,4.0,8.0,77,0.00,,,0.00,Wunderground v.1.15,2013-04-29 01:55:00,
2013-04-28 21:00:00,59.9,53.0,29.94,SSW,212,4.0,5.0,78,0.00,,,0.00,Wunderground v.1.15,2013-04-29 02:00:00,